Nato Warship F103 — EBDC — position and weather

sailwx.info

Track history (hours):
 
Tides and Currents Weather Stations Pressure Air Temp Water Temp Dewpoint Dewpoint Depression Visibility Wind Speed Wind Dir Waves Ship Positions

Nato Warship F103

Last reported at 2017-Oct-17 16:49 UTC. Time now 2017-Oct-17 20:41 UTC.
Position N 43°54' E 009°35'.

Type: Military. MMSI: 224767000.

Date/timePositionNaut miles runAvg speedWind from/ knotsBaromVisibWave heightAir tempDewpointWater temp
2017-Oct-17 16:49N 43°54' E 009°35'2 6.5
2017-Oct-17 16:30N 43°51' E 009°35'4 8.4
2017-Oct-17 16:00N 43°48' E 009°37'5 9.2
2017-Oct-17 15:30N 43°51' E 009°33'2 5.0
2017-Oct-17 15:00N 43°54' E 009°32'2 4.0
2017-Oct-17 14:30N 43°55' E 009°30'2 4.2
2017-Oct-17 14:00N 43°57' E 009°28'0 0.8
2017-Oct-17 13:30N 43°57' E 009°29'2 4.1
2017-Oct-17 13:00N 43°55' E 009°27'3 5.2
2017-Oct-17 12:30N 43°53' E 009°29'3 5.4
2017-Oct-17 12:00N 43°51' E 009°32'1 2.4
2017-Oct-17 11:30N 43°52' E 009°31'3 4.8
2017-Oct-17 10:57N 43°54' E 009°28'1 2.0
2017-Oct-17 10:27N 43°55' E 009°28'2 4.5
2017-Oct-17 10:00N 43°53' E 009°29'3 4.6
2017-Oct-17 09:26N 43°51' E 009°31'0 0.5
2017-Oct-17 09:00N 43°51' E 009°31'2 4.8
2017-Oct-17 08:30N 43°53' E 009°30'2 3.9
2017-Oct-17 08:00N 43°55' E 009°28'2 4.0
2017-Oct-17 07:30N 43°55' E 009°30'5 9.2
2017-Oct-17 07:00N 43°56' E 009°36'610.1
2017-Oct-17 06:27N 43°57' E 009°44'4 9.0
2017-Oct-17 06:00N 43°58' E 009°49'3 5.9
2017-Oct-17 05:28N 44°01' E 009°52'2 5.4
2017-Oct-17 05:00N 44°03' E 009°53'0 0.0
2017-Oct-17 04:26N 44°03' E 009°53'0 0.0
2017-Oct-17 04:00N 44°03' E 009°53'0 0.0
2017-Oct-17 03:30N 44°03' E 009°53'0 0.0
2017-Oct-17 03:00N 44°03' E 009°53'0 0.0
2017-Oct-17 02:30N 44°03' E 009°53'0 0.0
2017-Oct-17 01:59N 44°03' E 009°53'0 0.0
2017-Oct-17 01:30N 44°03' E 009°53'0 0.0
2017-Oct-17 01:00N 44°03' E 009°53'0 0.0
2017-Oct-17 00:30N 44°03' E 009°53'0 0.0
2017-Oct-17 00:00N 44°03' E 009°53'0 0.0
2017-Oct-16 23:30N 44°03' E 009°53'0 0.0
2017-Oct-16 22:58N 44°03' E 009°53'0 0.0
2017-Oct-16 22:30N 44°03' E 009°53'0 0.0
2017-Oct-16 22:00N 44°03' E 009°53'0 0.0
2017-Oct-16 21:27N 44°03' E 009°53'0 0.0
2017-Oct-16 20:57N 44°03' E 009°53'0 0.0
2017-Oct-16 20:25N 44°03' E 009°53'0 0.0
2017-Oct-16 19:58N 44°03' E 009°53'0 0.0
2017-Oct-16 19:28N 44°03' E 009°53'0 0.0
2017-Oct-16 19:00N 44°03' E 009°53'0 0.0
2017-Oct-16 18:30N 44°03' E 009°53'0 0.0
2017-Oct-16 18:00N 44°03' E 009°53'0 0.1
2017-Oct-16 17:30N 44°03' E 009°53'2 4.3
2017-Oct-16 17:00N 44°01' E 009°53'713.8
2017-Oct-16 16:30N 43°57' E 009°46'815.2
2017-Oct-16 16:00N 43°55' E 009°35'611.8
2017-Oct-16 15:30N 43°55' E 009°27'2 4.1
2017-Oct-16 15:00N 43°54' E 009°29'3 2.8
2017-Oct-16 14:00N 43°51' E 009°31'2 4.6
2017-Oct-16 13:30N 43°53' E 009°29'2 4.5
2017-Oct-16 13:00N 43°55' E 009°27'1 2.3
2017-Oct-16 12:30N 43°56' E 009°27'0 0.7
2017-Oct-16 12:00N 43°56' E 009°27'1 1.7
2017-Oct-16 11:30N 43°55' E 009°27'5 9.4
2017-Oct-16 10:56N 43°57' E 009°35'5 9.9
2017-Oct-16 10:26N 43°58' E 009°41'511.2
2017-Oct-16 10:00N 43°59' E 009°48'5 9.6
2017-Oct-16 09:30N 44°03' E 009°52'  
2017-Oct-13 17:18N 44°05' E 009°49'0 0.0
2017-Oct-13 17:01N 44°05' E 009°49'0 0.0
2017-Oct-13 16:31N 44°05' E 009°49'0 0.0
2017-Oct-13 16:00N 44°05' E 009°49'1 2.5
2017-Oct-13 15:30N 44°05' E 009°51'4 8.1
2017-Oct-13 15:01N 44°02' E 009°55'5 8.8
2017-Oct-13 14:27N 43°57' E 009°55'2 4.9
2017-Oct-13 14:01N 43°56' E 009°52'2 4.7
2017-Oct-13 13:30N 43°56' E 009°48'1 2.2
2017-Oct-13 13:01N 43°57' E 009°49'2 4.2
2017-Oct-13 12:31N 43°57' E 009°47'2 4.7
2017-Oct-13 12:01N 43°57' E 009°43'  
Track history (hours):
 
Tides and Currents Weather Stations Pressure Air Temp Water Temp Dewpoint Dewpoint Depression Visibility Wind Speed Wind Dir Waves Ship Positions

Nato Warship F103

Last reported at 2017-Oct-17 16:49 UTC. Time now 2017-Oct-17 20:41 UTC.
Position N 43°54' E 009°35'.

Type: Military. MMSI: 224767000.

Date/timePositionNaut miles runAvg speedWind from/ knotsBaromVisibWave heightAir tempDewpointWater temp
2017-Oct-17 16:49N 43°54' E 009°35'2 6.5
2017-Oct-17 16:30N 43°51' E 009°35'4 8.4
2017-Oct-17 16:00N 43°48' E 009°37'5 9.2
2017-Oct-17 15:30N 43°51' E 009°33'2 5.0
2017-Oct-17 15:00N 43°54' E 009°32'2 4.0
2017-Oct-17 14:30N 43°55' E 009°30'2 4.2
2017-Oct-17 14:00N 43°57' E 009°28'0 0.8
2017-Oct-17 13:30N 43°57' E 009°29'2 4.1
2017-Oct-17 13:00N 43°55' E 009°27'3 5.2
2017-Oct-17 12:30N 43°53' E 009°29'3 5.4
2017-Oct-17 12:00N 43°51' E 009°32'1 2.4
2017-Oct-17 11:30N 43°52' E 009°31'3 4.8
2017-Oct-17 10:57N 43°54' E 009°28'1 2.0
2017-Oct-17 10:27N 43°55' E 009°28'2 4.5
2017-Oct-17 10:00N 43°53' E 009°29'3 4.6
2017-Oct-17 09:26N 43°51' E 009°31'0 0.5
2017-Oct-17 09:00N 43°51' E 009°31'2 4.8
2017-Oct-17 08:30N 43°53' E 009°30'2 3.9
2017-Oct-17 08:00N 43°55' E 009°28'2 4.0
2017-Oct-17 07:30N 43°55' E 009°30'5 9.2
2017-Oct-17 07:00N 43°56' E 009°36'610.1
2017-Oct-17 06:27N 43°57' E 009°44'4 9.0
2017-Oct-17 06:00N 43°58' E 009°49'3 5.9
2017-Oct-17 05:28N 44°01' E 009°52'2 5.4
2017-Oct-17 05:00N 44°03' E 009°53'0 0.0
2017-Oct-17 04:26N 44°03' E 009°53'0 0.0
2017-Oct-17 04:00N 44°03' E 009°53'0 0.0
2017-Oct-17 03:30N 44°03' E 009°53'0 0.0
2017-Oct-17 03:00N 44°03' E 009°53'0 0.0
2017-Oct-17 02:30N 44°03' E 009°53'0 0.0
2017-Oct-17 01:59N 44°03' E 009°53'0 0.0
2017-Oct-17 01:30N 44°03' E 009°53'0 0.0
2017-Oct-17 01:00N 44°03' E 009°53'0 0.0
2017-Oct-17 00:30N 44°03' E 009°53'0 0.0
2017-Oct-17 00:00N 44°03' E 009°53'0 0.0
2017-Oct-16 23:30N 44°03' E 009°53'0 0.0
2017-Oct-16 22:58N 44°03' E 009°53'0 0.0
2017-Oct-16 22:30N 44°03' E 009°53'0 0.0
2017-Oct-16 22:00N 44°03' E 009°53'0 0.0
2017-Oct-16 21:27N 44°03' E 009°53'0 0.0
2017-Oct-16 20:57N 44°03' E 009°53'0 0.0
2017-Oct-16 20:25N 44°03' E 009°53'0 0.0
2017-Oct-16 19:58N 44°03' E 009°53'0 0.0
2017-Oct-16 19:28N 44°03' E 009°53'0 0.0
2017-Oct-16 19:00N 44°03' E 009°53'0 0.0
2017-Oct-16 18:30N 44°03' E 009°53'0 0.0
2017-Oct-16 18:00N 44°03' E 009°53'0 0.1
2017-Oct-16 17:30N 44°03' E 009°53'2 4.3
2017-Oct-16 17:00N 44°01' E 009°53'713.8
2017-Oct-16 16:30N 43°57' E 009°46'815.2
2017-Oct-16 16:00N 43°55' E 009°35'611.8
2017-Oct-16 15:30N 43°55' E 009°27'2 4.1
2017-Oct-16 15:00N 43°54' E 009°29'3 2.8
2017-Oct-16 14:00N 43°51' E 009°31'2 4.6
2017-Oct-16 13:30N 43°53' E 009°29'2 4.5
2017-Oct-16 13:00N 43°55' E 009°27'1 2.3
2017-Oct-16 12:30N 43°56' E 009°27'0 0.7
2017-Oct-16 12:00N 43°56' E 009°27'1 1.7
2017-Oct-16 11:30N 43°55' E 009°27'5 9.4
2017-Oct-16 10:56N 43°57' E 009°35'5 9.9
2017-Oct-16 10:26N 43°58' E 009°41'511.2
2017-Oct-16 10:00N 43°59' E 009°48'5 9.6
2017-Oct-16 09:30N 44°03' E 009°52'  
2017-Oct-13 17:18N 44°05' E 009°49'0 0.0
2017-Oct-13 17:01N 44°05' E 009°49'0 0.0
2017-Oct-13 16:31N 44°05' E 009°49'0 0.0
2017-Oct-13 16:00N 44°05' E 009°49'1 2.5
2017-Oct-13 15:30N 44°05' E 009°51'4 8.1
2017-Oct-13 15:01N 44°02' E 009°55'5 8.8
2017-Oct-13 14:27N 43°57' E 009°55'2 4.9
2017-Oct-13 14:01N 43°56' E 009°52'2 4.7
2017-Oct-13 13:30N 43°56' E 009°48'1 2.2
2017-Oct-13 13:01N 43°57' E 009°49'2 4.2
2017-Oct-13 12:31N 43°57' E 009°47'2 4.7
2017-Oct-13 12:01N 43°57' E 009°43'  

Dump ship's entire track history